sim
Sign-in with your pilot id or email,
or register
Callsign
Passwort

Schedule Details

Flight Number: DLH2207
Departure: Cologne Bonn Airport (EDDK) at 08:55
Arrival: Munich Airport (EDDM) at 10:00
Route: Lufthansa Passenger Schedule. Enter filed route here before submitting Pirep.

Weather Information
Getting current METAR information for EDDK 241050Z 20011KT 170V230 9999 FEW043 17/07 Q1005 NOSIG
Getting current METAR information for EDDM 241050Z 27005KT 220V300 9999 FEW026 20/13 Q1010 NOSIG

Schedule Frequency

Route Map